createdAt,value
2023-04-18T00:01:09.805Z,8.02
2023-04-18T00:06:13.952Z,8.15
2023-04-18T00:11:19.320Z,8.14
2023-04-18T00:16:27.227Z,8.33
2023-04-18T00:21:32.101Z,8.37
2023-04-18T00:26:38.166Z,8.03
2023-04-18T00:31:42.106Z,8.00
2023-04-18T00:36:46.025Z,7.89
2023-04-18T00:41:51.377Z,7.95
2023-04-18T00:46:56.962Z,7.89
2023-04-18T00:52:02.084Z,7.89
2023-04-18T00:57:08.132Z,7.88
2023-04-18T01:02:12.466Z,7.81
2023-04-18T01:07:17.578Z,7.78
2023-04-18T01:12:22.906Z,7.73
2023-04-18T01:17:28.496Z,7.63
2023-04-18T01:22:35.083Z,7.57
2023-04-18T01:27:40.404Z,7.58
2023-04-18T01:32:46.138Z,7.72
2023-04-18T01:37:50.065Z,7.73
2023-04-18T01:42:55.438Z,7.67
2023-04-18T01:47:59.526Z,7.80
2023-04-18T01:53:05.085Z,7.74
2023-04-18T01:58:12.045Z,7.78
2023-04-18T02:03:16.366Z,7.72
2023-04-18T02:08:20.494Z,7.64
2023-04-18T02:13:25.992Z,7.56
2023-04-18T02:18:30.721Z,7.78
2023-04-18T02:23:34.701Z,7.69
2023-04-18T02:28:40.109Z,7.61
2023-04-18T02:33:44.669Z,7.50
2023-04-18T02:38:48.610Z,7.61
2023-04-18T02:43:53.968Z,7.72
2023-04-18T02:48:57.975Z,7.76
2023-04-18T02:54:02.344Z,7.73
2023-04-18T02:59:17.713Z,7.59
2023-04-18T03:04:40.501Z,7.71
2023-04-18T03:09:46.479Z,7.61
2023-04-18T03:14:57.422Z,7.57
2023-04-18T03:20:01.592Z,7.58
2023-04-18T03:25:08.220Z,7.66
2023-04-18T03:30:24.452Z,7.66
2023-04-18T03:35:35.191Z,7.55
2023-04-18T03:40:39.206Z,7.59
2023-04-18T03:45:53.091Z,7.62
2023-04-18T03:50:58.499Z,7.75
2023-04-18T03:56:02.702Z,7.79
2023-04-18T04:01:23.837Z,7.85
2023-04-18T04:06:30.258Z,7.90
2023-04-18T04:11:34.377Z,7.99
2023-04-18T04:16:42.457Z,8.02
2023-04-18T04:21:48.972Z,8.05
2023-04-18T04:26:54.740Z,8.09
2023-04-18T04:32:04.053Z,8.17
2023-04-18T04:37:14.112Z,7.94
2023-04-18T04:42:30.064Z,8.39
2023-04-18T04:47:44.724Z,8.45
2023-04-18T04:52:52.304Z,8.19
2023-04-18T04:57:57.622Z,7.95
2023-04-18T05:03:37.063Z,8.05
2023-04-18T05:08:42.724Z,8.15
2023-04-18T05:13:46.685Z,8.47
2023-04-18T05:18:52.022Z,8.68
2023-04-18T05:23:56.320Z,8.88
2023-04-18T05:29:01.913Z,9.09
2023-04-18T05:34:07.374Z,9.11
2023-04-18T05:39:12.243Z,9.23
2023-04-18T05:44:18.365Z,9.48
2023-04-18T05:49:24.240Z,9.75
2023-04-18T05:54:28.189Z,10.11
2023-04-18T05:59:32.116Z,10.13
2023-04-18T06:04:37.645Z,10.81
2023-04-18T06:09:41.786Z,12.43
2023-04-18T06:14:45.837Z,12.21
2023-04-18T06:19:51.295Z,12.73
2023-04-18T06:24:57.394Z,13.08
2023-04-18T06:30:01.416Z,14.23
2023-04-18T06:35:07.911Z,13.78
2023-04-18T06:40:12.801Z,14.54
2023-04-18T06:45:16.860Z,13.88
2023-04-18T06:50:22.326Z,13.46
2023-04-18T06:55:26.571Z,13.76
2023-04-18T07:00:30.790Z,14.02
2023-04-18T07:05:36.542Z,13.95
2023-04-18T07:10:41.205Z,12.47
2023-04-18T07:15:48.436Z,13.22
2023-04-18T07:20:53.746Z,13.43
2023-04-18T07:26:00.245Z,15.00
2023-04-18T07:36:34.496Z,12.93
2023-04-18T07:41:38.505Z,13.74
2023-04-18T07:46:42.567Z,14.10
2023-04-18T07:51:47.945Z,14.37
2023-04-18T07:56:51.845Z,14.52
2023-04-18T08:01:55.850Z,15.28
2023-04-18T08:07:01.169Z,14.87
2023-04-18T08:12:05.517Z,14.36
2023-04-18T08:17:09.414Z,16.31
2023-04-18T08:22:14.714Z,15.05
2023-04-18T08:27:18.634Z,14.67
2023-04-18T08:32:22.578Z,14.80
2023-04-18T08:37:28.601Z,15.30
2023-04-18T08:42:33.278Z,15.79
2023-04-18T08:47:37.381Z,15.02
2023-04-18T08:52:47.634Z,14.19
2023-04-18T08:57:54.210Z,14.82
2023-04-18T09:02:59.587Z,15.73
2023-04-18T09:08:24.551Z,15.57
2023-04-18T09:13:41.593Z,15.93
2023-04-18T09:19:12.280Z,16.07
2023-04-18T09:24:24.409Z,15.09
2023-04-18T09:29:48.671Z,16.01
2023-04-18T09:34:54.523Z,14.40
2023-04-18T09:40:01.652Z,14.10
2023-04-18T09:45:07.904Z,13.94
2023-04-18T09:50:12.804Z,13.70
2023-04-18T09:55:20.129Z,13.88
2023-04-18T10:00:29.741Z,13.44
2023-04-18T10:05:37.758Z,13.03
2023-04-18T10:10:43.158Z,12.59
2023-04-18T10:15:47.368Z,12.90
2023-04-18T10:20:51.867Z,14.75
2023-04-18T10:25:58.079Z,14.36
2023-04-18T10:31:05.918Z,15.56
2023-04-18T10:36:19.887Z,17.12
2023-04-18T10:41:27.400Z,16.19
2023-04-18T10:46:32.812Z,14.78
2023-04-18T10:51:36.942Z,14.39
2023-04-18T10:56:53.505Z,13.35
2023-04-18T11:02:00.789Z,12.85
2023-04-18T11:07:04.792Z,12.02
2023-04-18T11:12:12.280Z,11.06
2023-04-18T11:17:20.342Z,10.78
2023-04-18T11:22:24.352Z,11.45
2023-04-18T11:27:31.298Z,11.71
2023-04-18T11:32:35.793Z,11.81
2023-04-18T11:37:41.812Z,11.97
2023-04-18T11:42:48.720Z,11.19
2023-04-18T11:47:57.175Z,11.38
2023-04-18T11:53:00.820Z,10.55
2023-04-18T11:58:07.045Z,10.10
2023-04-18T12:03:18.778Z,9.95
2023-04-18T12:08:22.891Z,10.27
2023-04-18T12:13:33.345Z,10.67
2023-04-18T12:18:37.329Z,10.40
2023-04-18T12:23:42.965Z,10.10
2023-04-18T12:28:53.931Z,9.75
2023-04-18T12:34:00.138Z,9.83
2023-04-18T12:39:04.204Z,9.60
2023-04-18T12:44:09.554Z,9.50
2023-04-18T12:49:13.434Z,9.46
2023-04-18T12:54:17.411Z,9.21
2023-04-18T12:59:22.664Z,9.11
2023-04-18T13:04:27.336Z,8.85
2023-04-18T13:09:31.679Z,9.17
2023-04-18T13:14:37.006Z,9.58
2023-04-18T13:19:41.092Z,10.04
2023-04-18T13:24:44.957Z,10.51
2023-04-18T13:29:50.300Z,10.79
2023-04-18T13:34:56.162Z,11.17
2023-04-18T13:40:00.096Z,11.87
2023-04-18T13:45:07.497Z,12.14
2023-04-18T13:50:12.070Z,11.94
2023-04-18T13:55:16.556Z,11.99
2023-04-18T14:00:22.341Z,12.30
2023-04-18T14:05:26.370Z,13.65
2023-04-18T14:10:30.382Z,14.56
2023-04-18T14:15:36.226Z,14.37
2023-04-18T14:20:40.179Z,13.34
2023-04-18T14:25:44.656Z,12.41
2023-04-18T14:30:50.027Z,11.78
2023-04-18T14:35:54.044Z,10.97
2023-04-18T14:40:58.597Z,10.83
2023-04-18T14:46:03.936Z,10.52
2023-04-18T14:51:08.039Z,10.40
2023-04-18T14:56:12.087Z,10.50
2023-04-18T15:01:18.611Z,10.56
2023-04-18T15:06:23.220Z,11.08
2023-04-18T15:11:27.488Z,12.20
2023-04-18T15:16:38.265Z,13.21
2023-04-18T15:21:42.341Z,12.69
2023-04-18T15:26:48.061Z,13.14
2023-04-18T15:31:53.504Z,13.24
2023-04-18T15:36:58.997Z,13.79
2023-04-18T15:42:03.001Z,12.91
2023-04-18T15:47:10.818Z,12.97
2023-04-18T15:52:16.942Z,12.30
2023-04-18T15:57:24.147Z,12.14
2023-04-18T16:02:29.787Z,11.46
2023-04-18T16:07:34.017Z,11.14
2023-04-18T16:12:40.250Z,10.80
2023-04-18T16:17:45.798Z,10.29
2023-04-18T16:22:53.090Z,9.83
2023-04-18T16:27:57.159Z,9.77
2023-04-18T16:33:02.651Z,9.55
2023-04-18T16:38:08.051Z,9.44
2023-04-18T16:43:12.191Z,9.27
2023-04-18T16:48:20.097Z,9.13
2023-04-18T16:53:25.035Z,8.90
2023-04-18T17:03:59.354Z,8.52
2023-04-18T17:09:06.331Z,8.55
2023-04-18T17:14:10.597Z,8.51
2023-04-18T17:19:16.208Z,8.49
2023-04-18T17:24:22.516Z,8.44
2023-04-18T17:29:27.089Z,8.34
2023-04-18T17:34:32.465Z,8.32
2023-04-18T17:39:36.494Z,8.32
2023-04-18T17:44:41.410Z,8.35
2023-04-18T17:49:49.108Z,8.38
2023-04-18T17:54:53.280Z,8.40
2023-04-18T17:59:57.599Z,8.34
2023-04-18T18:05:03.042Z,8.32
2023-04-18T18:10:08.644Z,8.36
2023-04-18T18:20:44.019Z,8.30
2023-04-18T18:25:47.638Z,8.24
2023-04-18T18:30:51.728Z,8.19
2023-04-18T18:35:58.628Z,8.27
2023-04-18T18:41:04.639Z,8.24
2023-04-18T18:46:09.040Z,8.17
2023-04-18T18:51:14.444Z,8.19
2023-04-18T18:56:18.373Z,8.11
2023-04-18T19:01:23.063Z,8.02
2023-04-18T19:06:32.173Z,7.93
2023-04-18T19:11:36.124Z,7.97
2023-04-18T19:16:40.234Z,7.96
2023-04-18T19:21:47.250Z,7.89
2023-04-18T19:26:51.182Z,7.85
2023-04-18T19:31:55.324Z,7.87
2023-04-18T19:37:01.455Z,7.93
2023-04-18T19:42:05.822Z,8.11
2023-04-18T19:47:09.858Z,7.89
2023-04-18T19:52:15.292Z,7.84
2023-04-18T19:57:19.374Z,7.73
2023-04-18T20:02:23.804Z,7.71
2023-04-18T20:07:32.776Z,7.92
2023-04-18T20:12:36.829Z,7.96
2023-04-18T20:17:40.823Z,7.90
2023-04-18T20:22:47.545Z,7.86
2023-04-18T20:27:53.170Z,7.48
2023-04-18T20:32:57.184Z,7.42
2023-04-18T20:38:02.765Z,7.48
2023-04-18T20:43:08.157Z,7.48
2023-04-18T20:48:12.143Z,7.37
2023-04-18T20:53:17.672Z,7.53
2023-04-18T20:58:21.847Z,7.26
2023-04-18T21:03:26.342Z,7.15
2023-04-18T21:08:31.768Z,7.14
2023-04-18T21:13:36.072Z,7.21
2023-04-18T21:18:39.976Z,7.15
2023-04-18T21:23:45.996Z,6.90
2023-04-18T21:28:54.308Z,7.04
2023-04-18T21:34:00.924Z,6.99
2023-04-18T21:39:06.244Z,7.19
2023-04-18T21:44:10.698Z,7.44
2023-04-18T21:49:16.067Z,7.59
2023-04-18T21:54:22.518Z,7.75
2023-04-18T21:59:29.395Z,7.62
2023-04-18T22:04:38.238Z,7.42
2023-04-18T22:09:44.892Z,7.64
2023-04-18T22:14:49.069Z,7.75
2023-04-18T22:19:53.629Z,7.45
2023-04-18T22:24:58.959Z,7.50
2023-04-18T22:30:03.035Z,7.17
2023-04-18T22:35:08.271Z,7.11
2023-04-18T22:40:15.803Z,7.17
2023-04-18T22:45:23.462Z,7.25
2023-04-18T22:50:27.562Z,6.97
2023-04-18T22:55:32.965Z,7.00
2023-04-18T23:00:37.495Z,7.17
2023-04-18T23:05:42.087Z,7.34
2023-04-18T23:10:47.456Z,7.51
2023-04-18T23:15:51.440Z,7.36
2023-04-18T23:20:55.425Z,7.21
2023-04-18T23:26:00.904Z,7.34
2023-04-18T23:31:08.629Z,7.52
2023-04-18T23:36:13.089Z,7.52
2023-04-18T23:41:18.367Z,7.45
2023-04-18T23:46:22.361Z,7.60
2023-04-18T23:51:26.908Z,7.60
2023-04-18T23:56:33.113Z,7.50
